createdAt,value
2017-06-10T00:14:15.298Z,101792.96
2017-06-10T00:16:41.556Z,101798.91
2017-06-10T00:19:07.800Z,101805.14
2017-06-10T00:33:20.536Z,101805.10
2017-06-10T00:35:46.760Z,101808.27
2017-06-10T00:47:08.374Z,101814.73
2017-06-10T00:49:34.530Z,101811.22
2017-06-10T00:52:05.760Z,101817.50
2017-06-10T00:54:31.909Z,101815.33
2017-06-10T00:56:58.137Z,101815.81
2017-06-10T00:59:24.332Z,101817.59
2017-06-10T01:01:50.481Z,101816.33
2017-06-10T01:04:16.686Z,101819.15
2017-06-10T01:06:42.916Z,101823.70
2017-06-10T01:22:04.933Z,101823.87
2017-06-10T01:24:31.279Z,101821.70
2017-06-10T01:26:57.513Z,101825.31
2017-06-10T01:29:23.670Z,101827.60
2017-06-10T01:31:49.904Z,101825.73
2017-06-10T01:34:16.175Z,101821.84
2017-06-10T01:36:42.476Z,101829.90
2017-06-10T01:45:07.648Z,101838.44
2017-06-10T01:47:34.069Z,101847.41
2017-06-10T01:50:00.266Z,101832.20
2017-06-10T01:55:23.160Z,101850.58
2017-06-10T01:57:49.369Z,101848.41
2017-06-10T02:00:15.542Z,101843.47
2017-06-10T02:02:41.690Z,101832.76
2017-06-10T02:05:07.967Z,101843.51
2017-06-10T02:16:23.906Z,101826.04
2017-06-10T02:18:50.056Z,101827.42
2017-06-10T02:21:16.337Z,101835.09
2017-06-10T02:35:28.390Z,101843.20
2017-06-10T02:55:33.852Z,101870.45
2017-06-10T02:58:00.004Z,101869.11
2017-06-10T03:00:26.146Z,101868.16
2017-06-10T03:02:52.338Z,101862.34
2017-06-10T03:05:18.566Z,101879.34
2017-06-10T03:16:53.982Z,101875.04
2017-06-10T03:19:20.133Z,101874.22
2017-06-10T03:21:46.327Z,101877.38
2017-06-10T03:30:11.187Z,101877.03
2017-06-10T03:32:37.505Z,101878.34
2017-06-10T03:35:03.660Z,101883.83
2017-06-10T03:37:29.910Z,101886.48
2017-06-10T03:57:34.895Z,101891.66
2017-06-10T04:00:01.194Z,101883.60
2017-06-10T04:02:27.494Z,101891.11
2017-06-10T04:04:53.646Z,101886.72
2017-06-10T04:07:19.802Z,101886.29
2017-06-10T04:18:35.757Z,101899.80
2017-06-10T04:21:01.913Z,101905.17
2017-06-10T04:36:10.517Z,101916.12
2017-06-10T04:38:36.813Z,101919.68
2017-06-10T04:41:03.011Z,101924.11
2017-06-10T04:43:29.313Z,101928.92
2017-06-10T04:45:55.505Z,101934.26
2017-06-10T04:48:21.676Z,101924.02
2017-06-10T04:50:47.858Z,101922.56
2017-06-10T04:59:07.249Z,101935.20
2017-06-10T05:01:33.390Z,101943.30
2017-06-10T05:03:59.666Z,101943.27
2017-06-10T05:06:26.047Z,101936.16
2017-06-10T05:18:06.062Z,101943.23
2017-06-10T05:20:32.241Z,101938.33
2017-06-10T05:22:58.493Z,101942.40
2017-06-10T05:37:10.577Z,101967.88
2017-06-10T05:57:15.882Z,101991.86
2017-06-10T05:59:42.181Z,101986.97
2017-06-10T06:02:08.364Z,101995.89
2017-06-10T06:04:34.579Z,101986.45
2017-06-10T06:07:00.776Z,101989.53
2017-06-10T06:18:16.392Z,101994.79
2017-06-10T06:20:42.594Z,101997.91
2017-06-10T06:23:08.789Z,101995.81
2017-06-10T06:37:21.076Z,102015.22
2017-06-10T06:57:26.508Z,102028.69
2017-06-10T06:59:52.722Z,102041.13
2017-06-10T07:02:18.926Z,102047.92
2017-06-10T07:04:45.229Z,102050.30
2017-06-10T07:07:11.568Z,102050.61
2017-06-10T07:18:27.362Z,102066.50
2017-06-10T07:20:53.637Z,102061.27
2017-06-10T07:23:19.831Z,102062.36
2017-06-10T07:37:32.011Z,102069.81
2017-06-10T07:57:37.189Z,102071.11
2017-06-10T08:00:03.430Z,102080.56
2017-06-10T08:02:29.630Z,102083.06
2017-06-10T08:04:55.844Z,102087.41
2017-06-10T08:07:22.071Z,102091.37
2017-06-10T08:18:37.806Z,102077.77
2017-06-10T08:21:04.010Z,102081.36
2017-06-10T08:23:30.208Z,102077.66
2017-06-10T08:37:42.429Z,102081.88
2017-06-10T08:40:14.524Z,102088.61
2017-06-10T08:42:40.717Z,102083.99
2017-06-10T08:45:07.007Z,102087.66
2017-06-10T08:47:33.165Z,102091.41
2017-06-10T08:49:59.390Z,102086.76
2017-06-10T08:52:25.641Z,102079.45
2017-06-10T08:57:48.583Z,102082.52
2017-06-10T09:00:14.800Z,102089.76
2017-06-10T09:02:41.060Z,102086.48
2017-06-10T09:05:07.236Z,102088.11
2017-06-10T09:07:33.419Z,102085.97
2017-06-10T09:18:49.158Z,102093.03
2017-06-10T09:21:15.395Z,102081.45
2017-06-10T09:23:41.618Z,102091.80
2017-06-10T09:26:13.670Z,102087.70
2017-06-10T09:28:40.001Z,102093.83
2017-06-10T09:31:06.460Z,102092.25
2017-06-10T09:33:32.991Z,102088.88
2017-06-10T09:35:59.288Z,102085.20
2017-06-10T09:38:25.526Z,102082.36
2017-06-10T09:58:38.779Z,102082.01
2017-06-10T10:01:04.989Z,102077.99
2017-06-10T10:03:31.253Z,102081.00
2017-06-10T10:05:57.505Z,102082.48
2017-06-10T10:08:23.694Z,102089.75
2017-06-10T10:19:39.931Z,102071.88
2017-06-10T10:22:06.181Z,102081.45
2017-06-10T10:24:32.429Z,102083.30
2017-06-10T10:38:44.683Z,102088.36
2017-06-10T10:44:13.258Z,102075.77
2017-06-10T10:46:39.525Z,102071.56
2017-06-10T10:49:05.683Z,102070.91
2017-06-10T10:51:31.958Z,102071.35
2017-06-10T10:53:58.185Z,102066.14
2017-06-10T10:59:20.822Z,102059.16
2017-06-10T11:01:47.090Z,102062.67
2017-06-10T11:04:13.543Z,102055.72
2017-06-10T11:06:39.775Z,102061.33
2017-06-10T11:09:06.136Z,102057.59
2017-06-10T11:20:21.794Z,102059.53
2017-06-10T11:22:48.108Z,102057.36
2017-06-10T11:25:14.320Z,102047.37
2017-06-10T11:39:26.381Z,102044.80
2017-06-10T11:59:31.441Z,102053.16
2017-06-10T12:01:57.681Z,102041.89
2017-06-10T12:04:24.022Z,102032.20
2017-06-10T12:06:50.498Z,102027.25
2017-06-10T12:09:16.764Z,102028.52
2017-06-10T12:20:32.608Z,102017.22
2017-06-10T12:22:59.984Z,102013.27
2017-06-10T12:25:27.089Z,102015.05
2017-06-10T12:39:39.313Z,102004.11
2017-06-10T12:59:44.781Z,101983.23
2017-06-10T13:02:11.050Z,101983.59
2017-06-10T13:04:37.276Z,101993.06
2017-06-10T13:07:03.513Z,101991.70
2017-06-10T13:09:29.666Z,101997.30
2017-06-10T13:20:47.914Z,101988.48
2017-06-10T13:23:14.103Z,101975.53
2017-06-10T13:25:40.543Z,101980.48
2017-06-10T13:39:53.930Z,101969.53
2017-06-10T13:51:15.468Z,101969.37
2017-06-10T13:53:41.733Z,101970.89
2017-06-10T13:56:07.936Z,101960.53
2017-06-10T13:58:54.688Z,101962.52
2017-06-10T14:01:20.908Z,101967.91
2017-06-10T14:03:47.102Z,101955.59
2017-06-10T14:06:13.323Z,101948.67
2017-06-10T14:08:39.561Z,101939.04
2017-06-10T14:11:06.024Z,101947.20
2017-06-10T14:19:25.370Z,101947.58
2017-06-10T14:21:51.606Z,101949.95
2017-06-10T14:24:17.883Z,101946.64
2017-06-10T14:26:44.118Z,101942.30
2017-06-10T14:32:12.827Z,101939.17
2017-06-10T14:34:40.015Z,101940.30
2017-06-10T14:37:07.178Z,101945.94
2017-06-10T14:39:33.583Z,101946.37
2017-06-10T14:41:59.845Z,101934.81
2017-06-10T14:59:09.933Z,101913.12
2017-06-10T15:01:36.117Z,101916.01
2017-06-10T15:04:02.422Z,101910.71
2017-06-10T15:06:28.694Z,101909.22
2017-06-10T15:08:54.898Z,101904.21
2017-06-10T15:11:21.228Z,101899.88
2017-06-10T15:19:40.638Z,101899.64
2017-06-10T15:22:06.840Z,101900.12
2017-06-10T15:24:33.099Z,101900.27
2017-06-10T15:26:59.368Z,101898.13
2017-06-10T15:38:42.591Z,101883.73
2017-06-10T15:41:09.000Z,101873.86
2017-06-10T15:58:18.125Z,101872.12
2017-06-10T16:00:44.547Z,101869.86
2017-06-10T16:03:10.826Z,101865.34
2017-06-10T16:05:37.122Z,101853.20
2017-06-10T16:08:03.293Z,101863.94
2017-06-10T16:10:29.562Z,101871.55
2017-06-10T16:12:55.774Z,101872.41
2017-06-10T16:18:18.556Z,101869.98
2017-06-10T16:20:44.765Z,101863.25
2017-06-10T16:23:10.991Z,101861.80
2017-06-10T16:25:37.189Z,101864.88
2017-06-10T16:28:03.483Z,101871.67
2017-06-10T16:39:19.509Z,101863.91
2017-06-10T16:41:45.726Z,101867.00
2017-06-10T16:44:17.790Z,101860.83
2017-06-10T16:46:43.965Z,101868.06
2017-06-10T16:49:10.266Z,101863.63
2017-06-10T16:51:36.476Z,101860.35
2017-06-10T16:54:02.761Z,101861.75
2017-06-10T16:56:28.983Z,101855.44
2017-06-10T16:58:55.178Z,101864.02
2017-06-10T17:01:21.490Z,101867.09
2017-06-10T17:03:47.841Z,101877.02
2017-06-10T17:06:14.025Z,101867.00
2017-06-10T17:08:40.327Z,101872.83
2017-06-10T17:11:06.566Z,101873.31
2017-06-10T17:13:32.753Z,101872.48
2017-06-10T17:18:55.804Z,101873.69
2017-06-10T17:21:22.573Z,101877.59
2017-06-10T17:23:48.788Z,101877.06
2017-06-10T17:26:14.943Z,101873.73
2017-06-10T17:28:41.145Z,101874.59
2017-06-10T17:39:56.881Z,101880.52
2017-06-10T17:42:23.152Z,101879.48
2017-06-10T17:59:32.028Z,101872.44
2017-06-10T18:01:58.257Z,101866.03
2017-06-10T18:04:24.434Z,101874.84
2017-06-10T18:06:50.766Z,101879.22
2017-06-10T18:09:17.217Z,101875.45
2017-06-10T18:11:43.579Z,101873.92
2017-06-10T18:14:15.722Z,101872.34
2017-06-10T18:16:42.106Z,101868.16
2017-06-10T18:19:08.515Z,101862.86
2017-06-10T18:21:34.929Z,101856.77
2017-06-10T18:24:01.213Z,101862.69
2017-06-10T18:26:27.419Z,101863.66
2017-06-10T18:28:53.814Z,101866.56
2017-06-10T18:37:19.151Z,101858.27
2017-06-10T18:39:45.558Z,101861.30
2017-06-10T18:42:12.086Z,101857.08
2017-06-10T18:59:22.037Z,101862.16
2017-06-10T19:01:48.197Z,101861.67
2017-06-10T19:04:14.534Z,101860.61
2017-06-10T19:06:40.767Z,101859.69
2017-06-10T19:09:07.347Z,101859.50
2017-06-10T19:11:33.698Z,101846.66
2017-06-10T19:13:59.898Z,101850.37
2017-06-10T19:19:22.730Z,101850.08
2017-06-10T19:21:48.939Z,101851.86
2017-06-10T19:24:15.101Z,101856.42
2017-06-10T19:26:41.360Z,101849.26
2017-06-10T19:29:07.586Z,101854.55
2017-06-10T19:40:23.482Z,101854.41
2017-06-10T19:42:49.849Z,101853.87
2017-06-10T19:48:19.326Z,101871.44
2017-06-10T19:50:45.497Z,101881.40
2017-06-10T19:53:11.749Z,101881.02
2017-06-10T19:55:38.149Z,101888.19
2017-06-10T19:58:04.559Z,101886.45
2017-06-10T20:00:31.039Z,101886.55
2017-06-10T20:02:57.210Z,101882.45
2017-06-10T20:05:23.405Z,101885.15
2017-06-10T20:07:49.566Z,101888.37
2017-06-10T20:10:15.776Z,101885.81
2017-06-10T20:12:42.041Z,101892.55
2017-06-10T20:21:01.206Z,101907.42
2017-06-10T20:23:27.376Z,101911.08
2017-06-10T20:25:53.542Z,101914.73
2017-06-10T20:28:19.706Z,101913.44
2017-06-10T20:40:03.759Z,101920.84
2017-06-10T20:42:30.220Z,101923.92
2017-06-10T20:59:39.129Z,101919.53
2017-06-10T21:19:44.545Z,101925.91
2017-06-10T21:22:10.722Z,101925.00
2017-06-10T21:24:36.894Z,101921.91
2017-06-10T21:27:03.099Z,101921.91
2017-06-10T21:29:29.338Z,101921.05
2017-06-10T21:40:45.218Z,101932.00
2017-06-10T21:43:11.484Z,101923.97
2017-06-10T22:00:20.245Z,101933.94
2017-06-10T22:02:46.571Z,101923.20
2017-06-10T22:05:12.736Z,101925.90
2017-06-10T22:07:39.074Z,101920.08
2017-06-10T22:10:05.364Z,101920.99
2017-06-10T22:12:31.582Z,101917.86
2017-06-10T22:14:57.733Z,101920.55
2017-06-10T22:20:20.531Z,101925.08
2017-06-10T22:22:46.862Z,101925.99
2017-06-10T22:25:13.298Z,101926.03
2017-06-10T22:27:39.461Z,101918.91
2017-06-10T22:39:20.725Z,101918.18
2017-06-10T22:41:46.983Z,101916.88
2017-06-10T22:44:13.180Z,101916.49
2017-06-10T22:58:26.164Z,101907.69
2017-06-10T23:18:31.327Z,101912.96
2017-06-10T23:20:57.479Z,101911.61
2017-06-10T23:23:23.673Z,101914.31
2017-06-10T23:25:49.902Z,101908.48
2017-06-10T23:28:16.086Z,101909.88
2017-06-10T23:39:31.749Z,101896.85
2017-06-10T23:41:57.968Z,101897.70
2017-06-10T23:44:24.361Z,101899.55
2017-06-10T23:58:39.966Z,101893.30
